sensor_id;sensor_type;location;lat;lon;timestamp;P1;durP1;ratioP1;P2;durP2;ratioP2
22332;SDS011;11334;36.986;-121.936;2023-07-13T00:01:29;3.92;;;1.95;;
22332;SDS011;11334;36.986;-121.936;2023-07-13T00:03:56;4.75;;;2.35;;
22332;SDS011;11334;36.986;-121.936;2023-07-13T00:06:23;3.63;;;2.22;;
22332;SDS011;11334;36.986;-121.936;2023-07-13T00:08:49;5.43;;;1.90;;
22332;SDS011;11334;36.986;-121.936;2023-07-13T00:11:16;4.55;;;2.25;;
22332;SDS011;11334;36.986;-121.936;2023-07-13T00:13:42;4.90;;;1.77;;
22332;SDS011;11334;36.986;-121.936;2023-07-13T00:16:10;5.90;;;2.17;;
22332;SDS011;11334;36.986;-121.936;2023-07-13T00:18:39;4.72;;;2.30;;
22332;SDS011;11334;36.986;-121.936;2023-07-13T00:21:06;4.75;;;2.08;;
22332;SDS011;11334;36.986;-121.936;2023-07-13T00:23:36;4.90;;;1.92;;
22332;SDS011;11334;36.986;-121.936;2023-07-13T00:26:04;3.33;;;2.13;;
22332;SDS011;11334;36.986;-121.936;2023-07-13T00:28:33;3.47;;;2.20;;
22332;SDS011;11334;36.986;-121.936;2023-07-13T00:30:59;6.00;;;2.45;;
22332;SDS011;11334;36.986;-121.936;2023-07-13T00:33:27;3.75;;;1.90;;
22332;SDS011;11334;36.986;-121.936;2023-07-13T00:35:54;4.75;;;2.22;;
22332;SDS011;11334;36.986;-121.936;2023-07-13T00:38:22;2.28;;;1.92;;
22332;SDS011;11334;36.986;-121.936;2023-07-13T00:40:49;4.90;;;2.10;;
22332;SDS011;11334;36.986;-121.936;2023-07-13T00:43:17;5.32;;;2.08;;
22332;SDS011;11334;36.986;-121.936;2023-07-13T00:48:17;7.07;;;2.50;;
22332;SDS011;11334;36.986;-121.936;2023-07-13T00:50:46;7.85;;;2.13;;
22332;SDS011;11334;36.986;-121.936;2023-07-13T00:53:16;6.80;;;2.75;;
22332;SDS011;11334;36.986;-121.936;2023-07-13T00:55:44;7.38;;;2.17;;
22332;SDS011;11334;36.986;-121.936;2023-07-13T00:58:12;5.53;;;2.60;;
22332;SDS011;11334;36.986;-121.936;2023-07-13T01:00:38;4.32;;;2.35;;
22332;SDS011;11334;36.986;-121.936;2023-07-13T01:03:06;5.95;;;2.80;;
22332;SDS011;11334;36.986;-121.936;2023-07-13T01:05:33;4.97;;;2.40;;
22332;SDS011;11334;36.986;-121.936;2023-07-13T01:08:00;8.48;;;3.35;;
22332;SDS011;11334;36.986;-121.936;2023-07-13T01:10:30;7.72;;;2.95;;
22332;SDS011;11334;36.986;-121.936;2023-07-13T01:13:08;7.90;;;3.42;;
22332;SDS011;11334;36.986;-121.936;2023-07-13T01:15:40;7.65;;;3.20;;
22332;SDS011;11334;36.986;-121.936;2023-07-13T01:18:15;8.10;;;3.20;;
22332;SDS011;11334;36.986;-121.936;2023-07-13T01:21:00;7.03;;;2.88;;
22332;SDS011;11334;36.986;-121.936;2023-07-13T01:23:29;11.48;;;3.30;;
22332;SDS011;11334;36.986;-121.936;2023-07-13T01:25:56;7.50;;;2.78;;
22332;SDS011;11334;36.986;-121.936;2023-07-13T01:28:24;8.98;;;2.80;;
22332;SDS011;11334;36.986;-121.936;2023-07-13T01:30:52;7.68;;;3.33;;
22332;SDS011;11334;36.986;-121.936;2023-07-13T01:33:20;8.63;;;3.15;;
22332;SDS011;11334;36.986;-121.936;2023-07-13T01:35:47;8.73;;;3.38;;
22332;SDS011;11334;36.986;-121.936;2023-07-13T01:38:14;10.13;;;3.13;;
22332;SDS011;11334;36.986;-121.936;2023-07-13T01:40:43;10.27;;;3.17;;
22332;SDS011;11334;36.986;-121.936;2023-07-13T01:43:10;9.02;;;3.63;;
22332;SDS011;11334;36.986;-121.936;2023-07-13T01:45:36;8.98;;;2.72;;
22332;SDS011;11334;36.986;-121.936;2023-07-13T01:48:03;8.18;;;3.50;;
22332;SDS011;11334;36.986;-121.936;2023-07-13T01:50:32;8.40;;;3.30;;
22332;SDS011;11334;36.986;-121.936;2023-07-13T01:52:59;11.48;;;3.83;;
22332;SDS011;11334;36.986;-121.936;2023-07-13T01:55:25;9.95;;;3.22;;
22332;SDS011;11334;36.986;-121.936;2023-07-13T01:57:52;6.00;;;3.17;;
22332;SDS011;11334;36.986;-121.936;2023-07-13T02:00:18;6.90;;;3.08;;
22332;SDS011;11334;36.986;-121.936;2023-07-13T02:02:45;11.05;;;3.70;;
22332;SDS011;11334;36.986;-121.936;2023-07-13T02:05:11;12.02;;;4.03;;
22332;SDS011;11334;36.986;-121.936;2023-07-13T02:07:39;7.93;;;2.78;;
22332;SDS011;11334;36.986;-121.936;2023-07-13T02:10:06;13.88;;;4.07;;
22332;SDS011;11334;36.986;-121.936;2023-07-13T02:12:33;10.43;;;4.05;;
22332;SDS011;11334;36.986;-121.936;2023-07-13T02:15:00;11.20;;;3.75;;
22332;SDS011;11334;36.986;-121.936;2023-07-13T02:17:26;8.85;;;3.35;;
22332;SDS011;11334;36.986;-121.936;2023-07-13T02:19:53;9.05;;;3.40;;
22332;SDS011;11334;36.986;-121.936;2023-07-13T02:22:19;12.25;;;3.65;;
22332;SDS011;11334;36.986;-121.936;2023-07-13T02:24:46;10.57;;;3.80;;
22332;SDS011;11334;36.986;-121.936;2023-07-13T02:27:13;8.68;;;3.35;;
22332;SDS011;11334;36.986;-121.936;2023-07-13T02:29:39;10.43;;;3.85;;
22332;SDS011;11334;36.986;-121.936;2023-07-13T02:32:05;8.27;;;3.05;;
22332;SDS011;11334;36.986;-121.936;2023-07-13T02:34:32;12.30;;;3.92;;
22332;SDS011;11334;36.986;-121.936;2023-07-13T02:36:58;9.02;;;3.45;;
22332;SDS011;11334;36.986;-121.936;2023-07-13T02:39:24;10.48;;;3.70;;
22332;SDS011;11334;36.986;-121.936;2023-07-13T02:41:50;9.68;;;4.15;;
22332;SDS011;11334;36.986;-121.936;2023-07-13T02:44:17;9.75;;;4.75;;
22332;SDS011;11334;36.986;-121.936;2023-07-13T02:46:43;9.93;;;3.92;;
22332;SDS011;11334;36.986;-121.936;2023-07-13T02:49:10;12.30;;;3.88;;
22332;SDS011;11334;36.986;-121.936;2023-07-13T02:51:36;14.25;;;4.43;;
22332;SDS011;11334;36.986;-121.936;2023-07-13T02:54:03;10.73;;;3.97;;
22332;SDS011;11334;36.986;-121.936;2023-07-13T02:56:30;7.88;;;3.88;;
22332;SDS011;11334;36.986;-121.936;2023-07-13T02:58:57;11.00;;;4.32;;
22332;SDS011;11334;36.986;-121.936;2023-07-13T03:01:24;9.38;;;3.67;;
22332;SDS011;11334;36.986;-121.936;2023-07-13T03:03:51;11.40;;;4.70;;
22332;SDS011;11334;36.986;-121.936;2023-07-13T03:06:18;13.05;;;4.03;;
22332;SDS011;11334;36.986;-121.936;2023-07-13T03:08:46;12.50;;;4.72;;
22332;SDS011;11334;36.986;-121.936;2023-07-13T03:11:15;13.32;;;4.95;;
22332;SDS011;11334;36.986;-121.936;2023-07-13T03:13:43;11.10;;;4.55;;
22332;SDS011;11334;36.986;-121.936;2023-07-13T03:16:10;15.57;;;5.25;;
22332;SDS011;11334;36.986;-121.936;2023-07-13T03:18:37;10.75;;;4.72;;
22332;SDS011;11334;36.986;-121.936;2023-07-13T03:21:04;12.00;;;4.97;;
22332;SDS011;11334;36.986;-121.936;2023-07-13T03:23:31;13.35;;;4.80;;
22332;SDS011;11334;36.986;-121.936;2023-07-13T03:26:11;10.30;;;4.47;;
22332;SDS011;11334;36.986;-121.936;2023-07-13T03:28:45;12.30;;;4.55;;
22332;SDS011;11334;36.986;-121.936;2023-07-13T03:31:13;11.50;;;5.20;;
22332;SDS011;11334;36.986;-121.936;2023-07-13T03:33:42;11.50;;;4.93;;
22332;SDS011;11334;36.986;-121.936;2023-07-13T03:36:12;12.18;;;5.20;;
22332;SDS011;11334;36.986;-121.936;2023-07-13T03:38:45;12.52;;;4.93;;
22332;SDS011;11334;36.986;-121.936;2023-07-13T03:41:16;12.25;;;5.32;;
22332;SDS011;11334;36.986;-121.936;2023-07-13T03:43:42;12.68;;;5.10;;
22332;SDS011;11334;36.986;-121.936;2023-07-13T03:46:09;12.02;;;5.18;;
22332;SDS011;11334;36.986;-121.936;2023-07-13T03:48:36;19.38;;;5.47;;
22332;SDS011;11334;36.986;-121.936;2023-07-13T03:51:02;13.20;;;5.28;;
22332;SDS011;11334;36.986;-121.936;2023-07-13T03:53:28;13.90;;;5.05;;
22332;SDS011;11334;36.986;-121.936;2023-07-13T03:55:54;12.25;;;5.68;;
22332;SDS011;11334;36.986;-121.936;2023-07-13T03:58:37;14.95;;;6.50;;
22332;SDS011;11334;36.986;-121.936;2023-07-13T04:01:06;15.40;;;5.53;;
22332;SDS011;11334;36.986;-121.936;2023-07-13T04:03:34;13.23;;;5.07;;
22332;SDS011;11334;36.986;-121.936;2023-07-13T04:06:02;10.65;;;5.72;;
22332;SDS011;11334;36.986;-121.936;2023-07-13T04:08:31;16.02;;;6.35;;
22332;SDS011;11334;36.986;-121.936;2023-07-13T04:10:59;12.15;;;5.90;;
22332;SDS011;11334;36.986;-121.936;2023-07-13T04:13:26;10.63;;;5.65;;
22332;SDS011;11334;36.986;-121.936;2023-07-13T04:15:53;16.50;;;6.78;;
22332;SDS011;11334;36.986;-121.936;2023-07-13T04:18:20;12.55;;;6.82;;
22332;SDS011;11334;36.986;-121.936;2023-07-13T04:20:47;14.60;;;6.80;;
22332;SDS011;11334;36.986;-121.936;2023-07-13T04:23:15;15.93;;;6.72;;
22332;SDS011;11334;36.986;-121.936;2023-07-13T04:25:45;16.38;;;6.60;;
22332;SDS011;11334;36.986;-121.936;2023-07-13T04:28:14;15.35;;;6.10;;
22332;SDS011;11334;36.986;-121.936;2023-07-13T04:30:43;15.02;;;6.97;;
22332;SDS011;11334;36.986;-121.936;2023-07-13T04:33:09;9.50;;;5.75;;
22332;SDS011;11334;36.986;-121.936;2023-07-13T04:35:36;14.82;;;5.93;;
22332;SDS011;11334;36.986;-121.936;2023-07-13T04:38:02;13.65;;;6.00;;
22332;SDS011;11334;36.986;-121.936;2023-07-13T04:40:29;10.70;;;5.53;;
22332;SDS011;11334;36.986;-121.936;2023-07-13T04:42:55;12.57;;;5.72;;
22332;SDS011;11334;36.986;-121.936;2023-07-13T04:45:21;9.40;;;5.70;;
22332;SDS011;11334;36.986;-121.936;2023-07-13T04:47:49;12.55;;;5.85;;
22332;SDS011;11334;36.986;-121.936;2023-07-13T04:50:16;11.55;;;5.93;;
22332;SDS011;11334;36.986;-121.936;2023-07-13T04:52:46;16.98;;;6.05;;
22332;SDS011;11334;36.986;-121.936;2023-07-13T04:55:13;12.65;;;5.35;;
22332;SDS011;11334;36.986;-121.936;2023-07-13T04:57:39;17.27;;;6.60;;
22332;SDS011;11334;36.986;-121.936;2023-07-13T05:00:05;13.93;;;6.88;;
22332;SDS011;11334;36.986;-121.936;2023-07-13T05:02:33;14.63;;;6.82;;
22332;SDS011;11334;36.986;-121.936;2023-07-13T05:05:00;11.63;;;6.93;;
22332;SDS011;11334;36.986;-121.936;2023-07-13T05:07:28;17.35;;;7.65;;
22332;SDS011;11334;36.986;-121.936;2023-07-13T05:09:55;16.02;;;7.32;;
22332;SDS011;11334;36.986;-121.936;2023-07-13T05:12:21;16.08;;;7.07;;
22332;SDS011;11334;36.986;-121.936;2023-07-13T05:14:47;12.68;;;6.07;;
22332;SDS011;11334;36.986;-121.936;2023-07-13T05:17:14;17.73;;;6.90;;
22332;SDS011;11334;36.986;-121.936;2023-07-13T05:19:41;9.57;;;6.65;;
22332;SDS011;11334;36.986;-121.936;2023-07-13T05:22:07;15.35;;;7.03;;
22332;SDS011;11334;36.986;-121.936;2023-07-13T05:24:34;15.98;;;6.95;;
22332;SDS011;11334;36.986;-121.936;2023-07-13T05:27:00;12.93;;;6.20;;
22332;SDS011;11334;36.986;-121.936;2023-07-13T05:29:26;14.80;;;5.88;;
22332;SDS011;11334;36.986;-121.936;2023-07-13T05:31:52;12.32;;;5.47;;
22332;SDS011;11334;36.986;-121.936;2023-07-13T05:34:19;8.60;;;4.30;;
22332;SDS011;11334;36.986;-121.936;2023-07-13T05:36:45;12.82;;;5.45;;
22332;SDS011;11334;36.986;-121.936;2023-07-13T05:39:11;12.32;;;4.78;;
22332;SDS011;11334;36.986;-121.936;2023-07-13T05:41:39;15.30;;;5.30;;
22332;SDS011;11334;36.986;-121.936;2023-07-13T05:44:05;13.10;;;5.43;;
22332;SDS011;11334;36.986;-121.936;2023-07-13T05:46:32;13.18;;;5.82;;
22332;SDS011;11334;36.986;-121.936;2023-07-13T05:48:59;17.00;;;5.55;;
22332;SDS011;11334;36.986;-121.936;2023-07-13T05:51:25;14.07;;;6.43;;
22332;SDS011;11334;36.986;-121.936;2023-07-13T05:53:52;11.82;;;5.53;;
22332;SDS011;11334;36.986;-121.936;2023-07-13T05:56:18;15.60;;;5.40;;
22332;SDS011;11334;36.986;-121.936;2023-07-13T05:58:44;13.63;;;5.45;;
22332;SDS011;11334;36.986;-121.936;2023-07-13T06:01:12;13.27;;;5.85;;
22332;SDS011;11334;36.986;-121.936;2023-07-13T06:03:39;14.27;;;5.53;;
22332;SDS011;11334;36.986;-121.936;2023-07-13T06:06:07;11.93;;;5.30;;
22332;SDS011;11334;36.986;-121.936;2023-07-13T06:08:34;12.13;;;5.00;;
22332;SDS011;11334;36.986;-121.936;2023-07-13T06:11:05;11.68;;;5.07;;
22332;SDS011;11334;36.986;-121.936;2023-07-13T06:13:42;12.73;;;5.65;;
22332;SDS011;11334;36.986;-121.936;2023-07-13T06:16:08;14.60;;;5.20;;
22332;SDS011;11334;36.986;-121.936;2023-07-13T06:18:35;11.15;;;5.40;;
22332;SDS011;11334;36.986;-121.936;2023-07-13T06:21:09;11.43;;;5.53;;
22332;SDS011;11334;36.986;-121.936;2023-07-13T06:23:40;13.65;;;5.80;;
22332;SDS011;11334;36.986;-121.936;2023-07-13T06:26:09;15.25;;;6.68;;
22332;SDS011;11334;36.986;-121.936;2023-07-13T06:28:37;9.98;;;5.63;;
22332;SDS011;11334;36.986;-121.936;2023-07-13T06:31:08;13.55;;;6.07;;
22332;SDS011;11334;36.986;-121.936;2023-07-13T06:33:36;13.90;;;5.13;;
22332;SDS011;11334;36.986;-121.936;2023-07-13T06:36:03;10.05;;;5.30;;
22332;SDS011;11334;36.986;-121.936;2023-07-13T06:38:31;12.38;;;4.60;;
22332;SDS011;11334;36.986;-121.936;2023-07-13T06:40:57;12.15;;;5.13;;
22332;SDS011;11334;36.986;-121.936;2023-07-13T06:43:24;9.95;;;4.78;;
22332;SDS011;11334;36.986;-121.936;2023-07-13T06:45:51;9.57;;;5.15;;
22332;SDS011;11334;36.986;-121.936;2023-07-13T06:48:20;12.57;;;4.43;;
22332;SDS011;11334;36.986;-121.936;2023-07-13T06:50:47;20.70;;;5.30;;
22332;SDS011;11334;36.986;-121.936;2023-07-13T06:53:15;10.48;;;5.03;;
22332;SDS011;11334;36.986;-121.936;2023-07-13T06:55:43;11.77;;;5.55;;
22332;SDS011;11334;36.986;-121.936;2023-07-13T06:58:11;12.38;;;4.85;;
22332;SDS011;11334;36.986;-121.936;2023-07-13T07:00:38;11.27;;;5.40;;
22332;SDS011;11334;36.986;-121.936;2023-07-13T07:03:05;9.65;;;4.32;;
22332;SDS011;11334;36.986;-121.936;2023-07-13T07:05:31;8.25;;;4.32;;
22332;SDS011;11334;36.986;-121.936;2023-07-13T07:07:58;9.23;;;4.65;;
22332;SDS011;11334;36.986;-121.936;2023-07-13T07:10:25;10.68;;;4.38;;
22332;SDS011;11334;36.986;-121.936;2023-07-13T07:12:51;10.73;;;4.35;;
22332;SDS011;11334;36.986;-121.936;2023-07-13T07:15:18;8.40;;;4.38;;
22332;SDS011;11334;36.986;-121.936;2023-07-13T07:17:44;9.07;;;4.40;;
22332;SDS011;11334;36.986;-121.936;2023-07-13T07:20:10;13.20;;;4.93;;
22332;SDS011;11334;36.986;-121.936;2023-07-13T07:22:37;8.18;;;4.93;;
22332;SDS011;11334;36.986;-121.936;2023-07-13T07:25:03;10.65;;;5.30;;
22332;SDS011;11334;36.986;-121.936;2023-07-13T07:27:32;10.38;;;4.28;;
22332;SDS011;11334;36.986;-121.936;2023-07-13T07:29:58;8.27;;;4.50;;
22332;SDS011;11334;36.986;-121.936;2023-07-13T07:32:25;12.20;;;4.68;;
22332;SDS011;11334;36.986;-121.936;2023-07-13T07:34:51;7.13;;;4.18;;
22332;SDS011;11334;36.986;-121.936;2023-07-13T07:37:17;10.55;;;4.40;;
22332;SDS011;11334;36.986;-121.936;2023-07-13T07:39:43;11.32;;;4.50;;
22332;SDS011;11334;36.986;-121.936;2023-07-13T07:42:10;7.90;;;4.35;;
22332;SDS011;11334;36.986;-121.936;2023-07-13T07:44:38;11.65;;;3.80;;
22332;SDS011;11334;36.986;-121.936;2023-07-13T07:47:05;8.63;;;4.20;;
22332;SDS011;11334;36.986;-121.936;2023-07-13T07:49:32;9.90;;;4.50;;
22332;SDS011;11334;36.986;-121.936;2023-07-13T07:51:58;11.93;;;4.50;;
22332;SDS011;11334;36.986;-121.936;2023-07-13T07:54:24;10.52;;;4.53;;
22332;SDS011;11334;36.986;-121.936;2023-07-13T07:56:50;8.75;;;4.55;;
22332;SDS011;11334;36.986;-121.936;2023-07-13T07:59:17;8.23;;;4.70;;
22332;SDS011;11334;36.986;-121.936;2023-07-13T08:01:44;10.07;;;4.50;;
22332;SDS011;11334;36.986;-121.936;2023-07-13T08:04:11;10.32;;;4.00;;
22332;SDS011;11334;36.986;-121.936;2023-07-13T08:06:38;8.38;;;3.55;;
22332;SDS011;11334;36.986;-121.936;2023-07-13T08:09:04;7.18;;;4.32;;
22332;SDS011;11334;36.986;-121.936;2023-07-13T08:11:31;7.00;;;4.53;;
22332;SDS011;11334;36.986;-121.936;2023-07-13T08:13:57;13.43;;;4.75;;
22332;SDS011;11334;36.986;-121.936;2023-07-13T08:16:23;10.88;;;4.53;;
22332;SDS011;11334;36.986;-121.936;2023-07-13T08:18:51;11.05;;;4.35;;
22332;SDS011;11334;36.986;-121.936;2023-07-13T08:21:17;9.10;;;4.50;;
22332;SDS011;11334;36.986;-121.936;2023-07-13T08:23:45;6.32;;;3.97;;
22332;SDS011;11334;36.986;-121.936;2023-07-13T08:26:11;8.27;;;4.10;;
22332;SDS011;11334;36.986;-121.936;2023-07-13T08:28:38;8.73;;;4.40;;
22332;SDS011;11334;36.986;-121.936;2023-07-13T08:31:04;8.32;;;4.40;;
22332;SDS011;11334;36.986;-121.936;2023-07-13T08:33:33;11.90;;;4.70;;
22332;SDS011;11334;36.986;-121.936;2023-07-13T08:36:00;12.32;;;4.57;;
22332;SDS011;11334;36.986;-121.936;2023-07-13T08:38:27;10.35;;;4.30;;
22332;SDS011;11334;36.986;-121.936;2023-07-13T08:40:54;8.98;;;4.22;;
22332;SDS011;11334;36.986;-121.936;2023-07-13T08:43:24;11.20;;;4.13;;
22332;SDS011;11334;36.986;-121.936;2023-07-13T08:45:55;12.15;;;5.10;;
22332;SDS011;11334;36.986;-121.936;2023-07-13T08:48:28;9.73;;;4.70;;
22332;SDS011;11334;36.986;-121.936;2023-07-13T08:53:58;8.23;;;3.70;;
22332;SDS011;11334;36.986;-121.936;2023-07-13T08:56:31;12.50;;;4.03;;
22332;SDS011;11334;36.986;-121.936;2023-07-13T08:59:00;10.88;;;4.90;;
22332;SDS011;11334;36.986;-121.936;2023-07-13T09:04:22;10.82;;;5.43;;
22332;SDS011;11334;36.986;-121.936;2023-07-13T09:07:45;12.18;;;5.93;;
22332;SDS011;11334;36.986;-121.936;2023-07-13T09:10:10;19.60;;;7.10;;
22332;SDS011;11334;36.986;-121.936;2023-07-13T09:15:40;24.05;;;8.10;;
22332;SDS011;11334;36.986;-121.936;2023-07-13T09:21:00;20.17;;;7.30;;
22332;SDS011;11334;36.986;-121.936;2023-07-13T09:23:36;15.10;;;6.18;;
22332;SDS011;11334;36.986;-121.936;2023-07-13T09:26:04;16.88;;;6.80;;
22332;SDS011;11334;36.986;-121.936;2023-07-13T09:28:43;15.30;;;5.63;;
22332;SDS011;11334;36.986;-121.936;2023-07-13T09:31:16;15.18;;;5.45;;
22332;SDS011;11334;36.986;-121.936;2023-07-13T09:34:02;12.50;;;4.63;;
22332;SDS011;11334;36.986;-121.936;2023-07-13T09:36:35;6.90;;;4.43;;
22332;SDS011;11334;36.986;-121.936;2023-07-13T09:41:37;10.57;;;4.50;;
22332;SDS011;11334;36.986;-121.936;2023-07-13T09:44:07;8.80;;;4.10;;
22332;SDS011;11334;36.986;-121.936;2023-07-13T09:46:35;10.20;;;5.22;;
22332;SDS011;11334;36.986;-121.936;2023-07-13T09:49:01;9.75;;;4.45;;
22332;SDS011;11334;36.986;-121.936;2023-07-13T09:51:28;7.68;;;4.50;;
22332;SDS011;11334;36.986;-121.936;2023-07-13T09:53:54;12.25;;;4.43;;
22332;SDS011;11334;36.986;-121.936;2023-07-13T09:56:25;5.82;;;4.05;;
22332;SDS011;11334;36.986;-121.936;2023-07-13T09:58:54;8.77;;;4.32;;
22332;SDS011;11334;36.986;-121.936;2023-07-13T10:01:35;9.18;;;4.82;;
22332;SDS011;11334;36.986;-121.936;2023-07-13T10:04:10;13.25;;;4.80;;
22332;SDS011;11334;36.986;-121.936;2023-07-13T10:06:44;9.82;;;5.25;;
22332;SDS011;11334;36.986;-121.936;2023-07-13T10:09:20;11.20;;;4.43;;
22332;SDS011;11334;36.986;-121.936;2023-07-13T10:11:47;12.68;;;5.78;;
22332;SDS011;11334;36.986;-121.936;2023-07-13T10:14:18;16.17;;;5.63;;
22332;SDS011;11334;36.986;-121.936;2023-07-13T10:16:52;14.65;;;6.28;;
22332;SDS011;11334;36.986;-121.936;2023-07-13T10:19:29;11.15;;;6.65;;
22332;SDS011;11334;36.986;-121.936;2023-07-13T10:25:01;16.77;;;7.15;;
22332;SDS011;11334;36.986;-121.936;2023-07-13T10:27:35;31.85;;;7.90;;
22332;SDS011;11334;36.986;-121.936;2023-07-13T10:30:21;19.80;;;8.80;;
22332;SDS011;11334;36.986;-121.936;2023-07-13T10:32:53;19.63;;;7.80;;
22332;SDS011;11334;36.986;-121.936;2023-07-13T10:35:23;16.35;;;7.93;;
22332;SDS011;11334;36.986;-121.936;2023-07-13T10:43:04;15.63;;;7.97;;
22332;SDS011;11334;36.986;-121.936;2023-07-13T10:45:39;15.07;;;7.75;;
22332;SDS011;11334;36.986;-121.936;2023-07-13T10:48:06;20.08;;;8.05;;
22332;SDS011;11334;36.986;-121.936;2023-07-13T10:50:38;15.15;;;8.40;;
22332;SDS011;11334;36.986;-121.936;2023-07-13T10:56:01;11.95;;;7.20;;
22332;SDS011;11334;36.986;-121.936;2023-07-13T10:58:35;11.95;;;6.60;;
22332;SDS011;11334;36.986;-121.936;2023-07-13T11:03:50;12.02;;;7.88;;
22332;SDS011;11334;36.986;-121.936;2023-07-13T11:09:39;10.27;;;6.13;;
22332;SDS011;11334;36.986;-121.936;2023-07-13T11:12:07;9.75;;;5.15;;
22332;SDS011;11334;36.986;-121.936;2023-07-13T11:14:43;8.55;;;5.85;;
22332;SDS011;11334;36.986;-121.936;2023-07-13T11:22:43;15.93;;;6.68;;
22332;SDS011;11334;36.986;-121.936;2023-07-13T11:28:37;10.07;;;6.00;;
22332;SDS011;11334;36.986;-121.936;2023-07-13T11:36:05;10.93;;;5.65;;
22332;SDS011;11334;36.986;-121.936;2023-07-13T11:38:45;9.45;;;6.00;;
22332;SDS011;11334;36.986;-121.936;2023-07-13T11:41:22;8.57;;;5.97;;
22332;SDS011;11334;36.986;-121.936;2023-07-13T11:43:54;11.10;;;5.47;;
22332;SDS011;11334;36.986;-121.936;2023-07-13T11:46:37;7.65;;;5.20;;
22332;SDS011;11334;36.986;-121.936;2023-07-13T11:49:06;7.45;;;5.55;;
22332;SDS011;11334;36.986;-121.936;2023-07-13T11:51:33;7.35;;;5.30;;
22332;SDS011;11334;36.986;-121.936;2023-07-13T11:54:06;9.15;;;5.18;;
22332;SDS011;11334;36.986;-121.936;2023-07-13T11:56:42;9.30;;;5.13;;
22332;SDS011;11334;36.986;-121.936;2023-07-13T11:59:10;8.57;;;6.10;;
22332;SDS011;11334;36.986;-121.936;2023-07-13T12:01:42;7.97;;;5.30;;
22332;SDS011;11334;36.986;-121.936;2023-07-13T12:04:19;7.97;;;4.80;;
22332;SDS011;11334;36.986;-121.936;2023-07-13T12:06:46;6.20;;;4.80;;
22332;SDS011;11334;36.986;-121.936;2023-07-13T12:09:18;7.97;;;5.20;;
22332;SDS011;11334;36.986;-121.936;2023-07-13T12:11:48;9.65;;;4.95;;
22332;SDS011;11334;36.986;-121.936;2023-07-13T12:14:15;11.93;;;5.90;;
22332;SDS011;11334;36.986;-121.936;2023-07-13T12:16:42;7.90;;;5.15;;
22332;SDS011;11334;36.986;-121.936;2023-07-13T12:19:15;10.75;;;6.45;;
22332;SDS011;11334;36.986;-121.936;2023-07-13T12:21:45;13.13;;;7.43;;
22332;SDS011;11334;36.986;-121.936;2023-07-13T12:24:16;9.52;;;6.40;;
22332;SDS011;11334;36.986;-121.936;2023-07-13T12:26:44;9.65;;;5.38;;
22332;SDS011;11334;36.986;-121.936;2023-07-13T12:29:16;11.98;;;6.60;;
22332;SDS011;11334;36.986;-121.936;2023-07-13T12:31:45;11.05;;;6.50;;
22332;SDS011;11334;36.986;-121.936;2023-07-13T12:34:14;8.52;;;5.60;;
22332;SDS011;11334;36.986;-121.936;2023-07-13T12:36:49;9.55;;;5.88;;
22332;SDS011;11334;36.986;-121.936;2023-07-13T12:39:28;8.27;;;7.15;;
22332;SDS011;11334;36.986;-121.936;2023-07-13T12:45:03;8.63;;;6.47;;
22332;SDS011;11334;36.986;-121.936;2023-07-13T12:47:57;12.70;;;7.25;;
22332;SDS011;11334;36.986;-121.936;2023-07-13T12:50:46;14.40;;;8.00;;
22332;SDS011;11334;36.986;-121.936;2023-07-13T12:53:16;11.90;;;7.95;;
22332;SDS011;11334;36.986;-121.936;2023-07-13T12:55:50;17.55;;;8.45;;
22332;SDS011;11334;36.986;-121.936;2023-07-13T12:58:37;12.25;;;7.65;;
22332;SDS011;11334;36.986;-121.936;2023-07-13T13:01:14;22.40;;;8.27;;
22332;SDS011;11334;36.986;-121.936;2023-07-13T13:03:46;15.20;;;7.82;;
22332;SDS011;11334;36.986;-121.936;2023-07-13T13:08:49;8.43;;;7.47;;
22332;SDS011;11334;36.986;-121.936;2023-07-13T13:11:17;10.77;;;7.75;;
22332;SDS011;11334;36.986;-121.936;2023-07-13T13:13:45;12.63;;;7.63;;
22332;SDS011;11334;36.986;-121.936;2023-07-13T13:18:50;13.35;;;7.03;;
22332;SDS011;11334;36.986;-121.936;2023-07-13T13:21:18;7.85;;;6.28;;
22332;SDS011;11334;36.986;-121.936;2023-07-13T13:23:45;18.25;;;6.63;;
22332;SDS011;11334;36.986;-121.936;2023-07-13T13:26:13;7.95;;;5.78;;
22332;SDS011;11334;36.986;-121.936;2023-07-13T13:28:44;19.75;;;6.72;;
22332;SDS011;11334;36.986;-121.936;2023-07-13T13:31:11;14.75;;;6.47;;
22332;SDS011;11334;36.986;-121.936;2023-07-13T13:33:41;6.43;;;5.40;;
22332;SDS011;11334;36.986;-121.936;2023-07-13T13:36:20;10.30;;;5.93;;
22332;SDS011;11334;36.986;-121.936;2023-07-13T13:38:49;32.45;;;7.55;;
22332;SDS011;11334;36.986;-121.936;2023-07-13T13:41:16;18.02;;;6.82;;
22332;SDS011;11334;36.986;-121.936;2023-07-13T13:43:42;7.57;;;5.95;;
22332;SDS011;11334;36.986;-121.936;2023-07-13T13:46:20;7.25;;;5.20;;
22332;SDS011;11334;36.986;-121.936;2023-07-13T13:48:50;8.85;;;4.75;;
22332;SDS011;11334;36.986;-121.936;2023-07-13T13:51:20;5.10;;;4.60;;
22332;SDS011;11334;36.986;-121.936;2023-07-13T13:53:49;4.47;;;4.07;;
22332;SDS011;11334;36.986;-121.936;2023-07-13T13:56:17;4.85;;;4.28;;
22332;SDS011;11334;36.986;-121.936;2023-07-13T13:58:44;9.50;;;4.60;;
22332;SDS011;11334;36.986;-121.936;2023-07-13T14:01:18;5.07;;;3.97;;
22332;SDS011;11334;36.986;-121.936;2023-07-13T14:03:46;4.53;;;3.85;;
22332;SDS011;11334;36.986;-121.936;2023-07-13T14:06:14;4.60;;;3.40;;
22332;SDS011;11334;36.986;-121.936;2023-07-13T14:08:41;3.42;;;2.95;;
22332;SDS011;11334;36.986;-121.936;2023-07-13T14:11:12;5.63;;;3.30;;
22332;SDS011;11334;36.986;-121.936;2023-07-13T14:13:42;4.15;;;3.03;;
22332;SDS011;11334;36.986;-121.936;2023-07-13T14:16:15;3.30;;;2.95;;
22332;SDS011;11334;36.986;-121.936;2023-07-13T14:18:45;6.25;;;2.65;;
22332;SDS011;11334;36.986;-121.936;2023-07-13T14:21:15;10.15;;;4.07;;
22332;SDS011;11334;36.986;-121.936;2023-07-13T14:23:46;4.45;;;3.58;;
22332;SDS011;11334;36.986;-121.936;2023-07-13T14:26:17;2.95;;;2.70;;
22332;SDS011;11334;36.986;-121.936;2023-07-13T14:28:54;5.47;;;2.72;;
22332;SDS011;11334;36.986;-121.936;2023-07-13T14:31:23;3.80;;;3.47;;
22332;SDS011;11334;36.986;-121.936;2023-07-13T14:33:51;5.70;;;3.17;;
22332;SDS011;11334;36.986;-121.936;2023-07-13T14:36:21;3.72;;;3.30;;
22332;SDS011;11334;36.986;-121.936;2023-07-13T14:38:52;6.03;;;3.33;;
22332;SDS011;11334;36.986;-121.936;2023-07-13T14:41:19;3.38;;;3.08;;
22332;SDS011;11334;36.986;-121.936;2023-07-13T14:43:46;3.95;;;3.33;;
22332;SDS011;11334;36.986;-121.936;2023-07-13T14:48:49;4.63;;;3.42;;
22332;SDS011;11334;36.986;-121.936;2023-07-13T14:51:15;4.50;;;3.92;;
22332;SDS011;11334;36.986;-121.936;2023-07-13T14:53:41;4.05;;;3.63;;
22332;SDS011;11334;36.986;-121.936;2023-07-13T14:56:11;6.00;;;4.80;;
22332;SDS011;11334;36.986;-121.936;2023-07-13T14:58:38;6.00;;;5.18;;
22332;SDS011;11334;36.986;-121.936;2023-07-13T15:01:09;4.82;;;4.32;;
22332;SDS011;11334;36.986;-121.936;2023-07-13T15:03:43;4.55;;;4.07;;
22332;SDS011;11334;36.986;-121.936;2023-07-13T15:06:11;7.88;;;4.63;;
22332;SDS011;11334;36.986;-121.936;2023-07-13T15:08:39;5.28;;;4.75;;
22332;SDS011;11334;36.986;-121.936;2023-07-13T15:11:09;6.70;;;4.80;;